createdAt,value
2017-08-21T00:01:14.281Z,4.80
2017-08-21T00:03:42.738Z,4.90
2017-08-21T00:06:11.086Z,3.90
2017-08-21T00:08:39.545Z,4.10
2017-08-21T00:11:07.895Z,4.20
2017-08-21T00:13:36.253Z,4.50
2017-08-21T00:16:04.816Z,4.57
2017-08-21T00:18:33.299Z,3.90
2017-08-21T00:21:01.678Z,4.23
2017-08-21T00:23:30.038Z,4.37
2017-08-21T00:25:58.399Z,4.97
2017-08-21T00:28:26.789Z,4.63
2017-08-21T00:30:55.283Z,4.77
2017-08-21T00:33:23.657Z,4.90
2017-08-21T00:35:51.998Z,4.30
2017-08-21T00:38:21.125Z,4.83
2017-08-21T00:40:49.486Z,4.70
2017-08-21T00:43:17.826Z,4.60
2017-08-21T00:45:46.354Z,4.70
2017-08-21T00:48:14.730Z,4.60
2017-08-21T00:50:42.800Z,4.90
2017-08-21T00:53:11.141Z,4.63
2017-08-21T00:55:39.605Z,4.60
2017-08-21T00:58:07.962Z,4.30
2017-08-21T01:00:35.630Z,5.47
2017-08-21T01:03:03.975Z,4.60
2017-08-21T01:05:33.106Z,4.90
2017-08-21T01:08:01.474Z,4.73
2017-08-21T01:10:30.113Z,5.30
2017-08-21T01:12:58.576Z,4.73
2017-08-21T01:15:26.930Z,5.07
2017-08-21T01:17:55.298Z,5.33
2017-08-21T01:20:23.646Z,4.93
2017-08-21T01:22:52.020Z,4.73
2017-08-21T01:25:20.369Z,5.57
2017-08-21T01:27:48.846Z,5.13
2017-08-21T01:30:17.191Z,5.10
2017-08-21T01:32:46.319Z,5.33
2017-08-21T01:35:14.894Z,4.90
2017-08-21T01:37:43.234Z,5.07
2017-08-21T01:40:12.557Z,5.20
2017-08-21T01:42:40.988Z,5.37
2017-08-21T01:45:09.346Z,4.90
2017-08-21T01:47:37.698Z,5.50
2017-08-21T01:50:06.044Z,5.70
2017-08-21T01:52:34.408Z,5.67
2017-08-21T01:55:02.973Z,5.63
2017-08-21T01:57:31.405Z,5.50
2017-08-21T02:00:00.087Z,5.83
2017-08-21T02:02:28.441Z,5.30
2017-08-21T02:04:57.681Z,5.70
2017-08-21T02:07:26.051Z,5.30
2017-08-21T02:09:54.415Z,5.50
2017-08-21T02:12:22.786Z,5.50
2017-08-21T02:14:51.117Z,5.53
2017-08-21T02:17:19.478Z,5.70
2017-08-21T02:19:48.023Z,5.60
2017-08-21T02:22:16.442Z,6.40
2017-08-21T02:24:45.002Z,5.67
2017-08-21T02:27:13.450Z,6.00
2017-08-21T02:29:41.825Z,5.73
2017-08-21T02:32:10.178Z,5.53
2017-08-21T02:34:38.526Z,6.60
2017-08-21T02:37:06.894Z,6.27
2017-08-21T02:39:35.432Z,5.73
2017-08-21T02:42:03.875Z,6.70
2017-08-21T02:44:32.224Z,6.27
2017-08-21T02:47:01.276Z,5.57
2017-08-21T02:49:29.630Z,5.80
2017-08-21T02:51:58.002Z,6.07
2017-08-21T02:54:26.359Z,5.43
2017-08-21T02:56:54.368Z,5.90
2017-08-21T02:59:22.726Z,6.70
2017-08-21T03:01:51.119Z,5.90
2017-08-21T03:04:19.478Z,6.30
2017-08-21T03:06:47.975Z,6.00
2017-08-21T03:09:16.453Z,5.57
2017-08-21T03:11:44.952Z,6.80
2017-08-21T03:14:13.325Z,6.70
2017-08-21T03:16:41.682Z,5.90
2017-08-21T03:19:10.021Z,6.60
2017-08-21T03:21:38.388Z,5.60
2017-08-21T03:24:06.738Z,6.00
2017-08-21T03:26:35.085Z,6.17
2017-08-21T03:29:03.561Z,6.13
2017-08-21T03:31:32.137Z,6.40
2017-08-21T03:34:00.621Z,7.10
2017-08-21T03:36:28.967Z,7.37
2017-08-21T03:38:57.313Z,6.30
2017-08-21T03:41:25.667Z,6.80
2017-08-21T03:43:54.171Z,7.40
2017-08-21T03:46:22.528Z,6.60
2017-08-21T03:48:50.883Z,6.50
2017-08-21T03:51:19.354Z,7.37
2017-08-21T03:53:47.714Z,6.43
2017-08-21T03:56:16.209Z,6.93
2017-08-21T03:58:44.554Z,6.40
2017-08-21T04:01:12.960Z,7.50
2017-08-21T04:03:41.302Z,7.03
2017-08-21T04:06:09.742Z,7.13
2017-08-21T04:08:38.102Z,6.83
2017-08-21T04:11:06.674Z,5.93
2017-08-21T04:13:35.013Z,6.90
2017-08-21T04:16:03.379Z,6.90
2017-08-21T04:18:31.713Z,6.33
2017-08-21T04:21:00.082Z,7.63
2017-08-21T04:23:28.462Z,7.33
2017-08-21T04:25:56.890Z,7.00
2017-08-21T04:28:25.234Z,6.80
2017-08-21T04:30:53.811Z,6.70
2017-08-21T04:33:22.151Z,6.77
2017-08-21T04:35:50.662Z,7.10
2017-08-21T04:38:19.023Z,8.00
2017-08-21T04:40:47.613Z,7.50
2017-08-21T04:43:16.067Z,7.30
2017-08-21T04:45:44.443Z,6.40
2017-08-21T04:48:12.905Z,8.37
2017-08-21T04:50:41.349Z,7.47
2017-08-21T04:53:09.707Z,8.30
2017-08-21T04:55:38.150Z,7.90
2017-08-21T04:58:06.627Z,7.63
2017-08-21T05:00:35.003Z,7.60
2017-08-21T05:03:03.352Z,7.53
2017-08-21T05:05:31.702Z,7.97
2017-08-21T05:08:00.075Z,7.60
2017-08-21T05:10:28.507Z,7.43
2017-08-21T05:12:56.862Z,8.03
2017-08-21T05:15:25.218Z,8.00
2017-08-21T05:17:53.779Z,7.60
2017-08-21T05:20:22.125Z,7.37
2017-08-21T05:22:50.502Z,9.20
2017-08-21T05:25:19.361Z,8.67
2017-08-21T05:27:47.714Z,7.40
2017-08-21T05:30:16.066Z,8.50
2017-08-21T05:32:44.423Z,7.50
2017-08-21T05:35:12.803Z,7.87
2017-08-21T05:37:41.174Z,8.07
2017-08-21T05:40:11.167Z,7.97
2017-08-21T05:42:39.597Z,7.33
2017-08-21T05:45:07.963Z,8.17
2017-08-21T05:47:36.342Z,7.80
2017-08-21T05:50:04.902Z,7.23
2017-08-21T05:52:33.247Z,7.80
2017-08-21T05:55:01.603Z,8.73
2017-08-21T05:57:30.912Z,8.83
2017-08-21T05:59:59.404Z,8.63
2017-08-21T06:02:27.745Z,8.07
2017-08-21T06:04:56.106Z,9.00
2017-08-21T06:07:24.469Z,10.00
2017-08-21T06:09:52.830Z,9.33
2017-08-21T06:12:21.418Z,8.87
2017-08-21T06:14:49.793Z,9.13
2017-08-21T06:17:18.841Z,9.93
2017-08-21T06:19:47.193Z,10.10
2017-08-21T06:22:15.561Z,9.10
2017-08-21T06:24:44.189Z,9.40
2017-08-21T06:27:13.210Z,9.90
2017-08-21T06:29:41.574Z,10.23
2017-08-21T06:32:09.933Z,9.30
2017-08-21T06:34:38.286Z,9.60
2017-08-21T06:37:06.655Z,11.13
2017-08-21T06:39:34.997Z,10.77
2017-08-21T06:42:03.363Z,11.53
2017-08-21T06:44:31.807Z,11.30
2017-08-21T06:47:00.150Z,9.83
2017-08-21T06:49:28.520Z,10.50
2017-08-21T06:51:56.934Z,11.67
2017-08-21T06:54:25.310Z,11.00
2017-08-21T06:56:53.753Z,10.33
2017-08-21T06:59:22.113Z,10.47
2017-08-21T07:01:50.595Z,11.30
2017-08-21T07:04:18.949Z,11.07
2017-08-21T07:06:47.318Z,11.77
2017-08-21T07:09:15.873Z,9.40
2017-08-21T07:11:44.249Z,11.43
2017-08-21T07:14:12.613Z,10.77
2017-08-21T07:16:41.056Z,11.00
2017-08-21T07:19:09.414Z,10.93
2017-08-21T07:21:37.774Z,11.10
2017-08-21T07:24:06.376Z,10.20
2017-08-21T07:26:34.813Z,10.83
2017-08-21T07:29:03.186Z,11.60
2017-08-21T07:31:31.538Z,10.70
2017-08-21T07:33:59.904Z,10.00
2017-08-21T07:36:28.523Z,11.70
2017-08-21T07:38:56.893Z,9.47
2017-08-21T07:41:25.255Z,8.13
2017-08-21T07:43:53.616Z,8.33
2017-08-21T07:46:21.963Z,8.37
2017-08-21T07:48:50.321Z,8.87
2017-08-21T07:51:19.046Z,10.07
2017-08-21T07:53:47.079Z,9.00
2017-08-21T07:56:15.628Z,10.40
2017-08-21T07:58:44.027Z,11.07
2017-08-21T08:01:12.482Z,10.90
2017-08-21T08:03:40.854Z,10.53
2017-08-21T08:06:09.236Z,10.87
2017-08-21T08:08:37.585Z,10.50
2017-08-21T08:11:05.950Z,10.13
2017-08-21T08:13:34.512Z,9.10
2017-08-21T08:16:02.880Z,10.47
2017-08-21T08:18:31.425Z,9.70
2017-08-21T08:20:59.866Z,8.50
2017-08-21T08:23:28.211Z,7.53
2017-08-21T08:25:56.588Z,8.47
2017-08-21T08:28:24.949Z,7.60
2017-08-21T08:30:53.306Z,6.50
2017-08-21T08:33:21.677Z,7.07
2017-08-21T08:35:50.033Z,6.77
2017-08-21T08:38:18.502Z,6.90
2017-08-21T08:40:46.871Z,6.07
2017-08-21T08:43:15.219Z,5.47
2017-08-21T08:45:43.591Z,5.40
2017-08-21T08:48:11.958Z,4.97
2017-08-21T08:50:40.315Z,5.40
2017-08-21T08:53:08.997Z,5.50
2017-08-21T08:55:37.678Z,4.90
2017-08-21T08:58:06.017Z,4.47
2017-08-21T09:00:34.116Z,4.63
2017-08-21T09:03:02.455Z,5.20
2017-08-21T09:05:31.578Z,4.57
2017-08-21T09:07:59.953Z,5.10
2017-08-21T09:10:28.305Z,4.97
2017-08-21T09:12:56.951Z,4.80
2017-08-21T09:15:25.310Z,4.47
2017-08-21T09:17:53.976Z,4.53
2017-08-21T09:20:22.353Z,3.73
2017-08-21T09:22:50.787Z,4.83
2017-08-21T09:25:19.394Z,4.17
2017-08-21T09:27:48.092Z,4.00
2017-08-21T09:30:16.674Z,4.40
2017-08-21T09:32:45.034Z,3.87
2017-08-21T09:35:13.388Z,3.67
2017-08-21T09:37:41.753Z,4.50
2017-08-21T09:40:09.936Z,4.60
2017-08-21T09:42:38.349Z,4.30
2017-08-21T09:45:07.032Z,4.20
2017-08-21T09:47:35.379Z,4.27
2017-08-21T09:50:03.843Z,4.40
2017-08-21T09:52:32.197Z,4.03
2017-08-21T09:55:00.674Z,3.80
2017-08-21T09:57:29.038Z,3.70
2017-08-21T09:59:57.399Z,4.50
2017-08-21T10:02:25.770Z,4.40
2017-08-21T10:04:54.131Z,4.47
2017-08-21T10:07:22.494Z,3.80
2017-08-21T10:09:51.534Z,4.00
2017-08-21T10:12:20.191Z,3.40
2017-08-21T10:14:48.542Z,3.37
2017-08-21T10:17:16.914Z,3.20
2017-08-21T10:19:45.261Z,4.07
2017-08-21T10:22:13.618Z,4.00
2017-08-21T10:24:42.170Z,3.83
2017-08-21T10:27:10.524Z,3.67
2017-08-21T10:29:38.883Z,3.90
2017-08-21T10:32:07.244Z,2.80
2017-08-21T10:34:35.677Z,3.67
2017-08-21T10:37:04.038Z,3.63
2017-08-21T10:39:32.400Z,3.27
2017-08-21T10:42:00.764Z,2.90
2017-08-21T10:44:29.120Z,3.60
2017-08-21T10:46:57.474Z,2.60
2017-08-21T10:49:26.543Z,2.90
2017-08-21T10:51:54.977Z,2.80
2017-08-21T10:54:23.511Z,3.20
2017-08-21T10:56:51.883Z,3.40
2017-08-21T10:59:20.246Z,3.10
2017-08-21T11:01:48.627Z,2.83
2017-08-21T11:04:17.004Z,3.33
2017-08-21T11:06:45.524Z,2.70
2017-08-21T11:09:13.885Z,3.20
2017-08-21T11:11:42.337Z,3.47
2017-08-21T11:14:10.717Z,3.20
2017-08-21T11:16:39.393Z,2.70
2017-08-21T11:19:07.827Z,2.97
2017-08-21T11:21:36.179Z,3.53
2017-08-21T11:24:04.830Z,3.43
2017-08-21T11:26:33.196Z,3.00
2017-08-21T11:29:01.581Z,2.70
2017-08-21T11:31:29.935Z,2.70
2017-08-21T11:33:59.078Z,2.50
2017-08-21T11:36:27.421Z,2.70
2017-08-21T11:38:55.996Z,3.20
2017-08-21T11:41:24.381Z,3.50
2017-08-21T11:43:52.637Z,3.10
2017-08-21T11:46:21.030Z,3.20
2017-08-21T11:48:49.380Z,3.30
2017-08-21T11:51:17.736Z,2.70
2017-08-21T11:53:46.085Z,2.57
2017-08-21T11:56:14.613Z,3.00
2017-08-21T11:58:42.988Z,2.20
2017-08-21T12:01:12.114Z,2.87
2017-08-21T12:03:41.255Z,2.63
2017-08-21T12:06:09.614Z,3.10
2017-08-21T12:08:37.962Z,2.87
2017-08-21T12:11:06.334Z,2.90
2017-08-21T12:13:34.727Z,2.57
2017-08-21T12:16:03.101Z,2.90
2017-08-21T12:18:31.455Z,2.87
2017-08-21T12:21:00.036Z,2.50
2017-08-21T12:23:28.474Z,2.40
2017-08-21T12:25:57.014Z,2.77
2017-08-21T12:28:25.466Z,2.40
2017-08-21T12:30:53.932Z,2.77
2017-08-21T12:33:22.278Z,2.70
2017-08-21T12:35:50.640Z,2.37
2017-08-21T12:38:18.990Z,2.70
2017-08-21T12:40:47.446Z,2.70
2017-08-21T12:43:15.810Z,2.60
2017-08-21T12:45:44.315Z,2.97
2017-08-21T12:48:12.679Z,3.37
2017-08-21T12:50:41.051Z,2.40
2017-08-21T12:53:09.412Z,2.80
2017-08-21T12:55:37.770Z,2.83
2017-08-21T12:58:06.135Z,2.83
2017-08-21T13:00:34.490Z,2.57
2017-08-21T13:03:03.035Z,2.90
2017-08-21T13:05:31.514Z,2.80
2017-08-21T13:07:59.889Z,2.67
2017-08-21T13:10:28.240Z,2.80
2017-08-21T13:12:57.274Z,3.13
2017-08-21T13:15:25.638Z,2.90
2017-08-21T13:17:54.020Z,2.90
2017-08-21T13:20:22.387Z,2.80
2017-08-21T13:22:50.992Z,2.60
2017-08-21T13:25:19.440Z,2.87
2017-08-21T13:27:47.815Z,3.20
2017-08-21T13:30:16.182Z,2.90
2017-08-21T13:32:44.537Z,2.67
2017-08-21T13:35:12.886Z,2.90
2017-08-21T13:37:41.255Z,2.80
2017-08-21T13:40:09.619Z,3.40
2017-08-21T13:42:38.176Z,2.70
2017-08-21T13:45:06.660Z,2.90
2017-08-21T13:47:35.033Z,2.97
2017-08-21T13:50:03.379Z,3.20
2017-08-21T13:52:31.062Z,2.80
2017-08-21T13:54:59.747Z,3.13
2017-08-21T13:57:28.128Z,3.10
2017-08-21T13:59:56.483Z,2.83
2017-08-21T14:02:24.856Z,3.00
2017-08-21T14:04:53.204Z,2.50
2017-08-21T14:07:21.556Z,3.00
2017-08-21T14:09:49.935Z,2.73
2017-08-21T14:12:19.153Z,2.33
2017-08-21T14:14:47.505Z,3.13
2017-08-21T14:17:15.886Z,2.77
2017-08-21T14:19:44.375Z,2.77
2017-08-21T14:22:12.731Z,2.77
2017-08-21T14:24:41.104Z,3.33
2017-08-21T14:27:09.470Z,3.60
2017-08-21T14:29:37.820Z,3.10
2017-08-21T14:32:06.179Z,2.97
2017-08-21T14:34:34.623Z,3.30
2017-08-21T14:37:02.975Z,2.70
2017-08-21T14:39:31.339Z,2.77
2017-08-21T14:41:59.707Z,3.10
2017-08-21T14:44:28.066Z,3.57
2017-08-21T14:46:56.594Z,3.20
2017-08-21T14:49:24.951Z,3.33
2017-08-21T14:51:53.318Z,3.00
2017-08-21T14:54:21.698Z,3.10
2017-08-21T14:56:50.061Z,3.13
2017-08-21T14:59:18.416Z,3.30
2017-08-21T15:01:47.735Z,3.20
2017-08-21T15:04:16.158Z,3.10
2017-08-21T15:06:44.533Z,3.50
2017-08-21T15:09:13.010Z,3.70
2017-08-21T15:11:42.059Z,3.93
2017-08-21T15:14:10.441Z,3.30
2017-08-21T15:16:38.918Z,3.43
2017-08-21T15:19:07.595Z,2.90
2017-08-21T15:21:36.040Z,3.70
2017-08-21T15:24:04.409Z,3.33
2017-08-21T15:26:33.446Z,2.73
2017-08-21T15:29:02.009Z,3.10
2017-08-21T15:31:30.358Z,3.00
2017-08-21T15:33:58.710Z,3.63
2017-08-21T15:36:27.079Z,2.53
2017-08-21T15:38:55.445Z,3.43
2017-08-21T15:41:23.794Z,2.87
2017-08-21T15:43:52.148Z,3.60
2017-08-21T15:46:20.502Z,3.23
2017-08-21T15:48:48.852Z,2.60
2017-08-21T15:51:17.199Z,3.43
2017-08-21T15:53:45.622Z,3.03
2017-08-21T15:56:13.991Z,2.70
2017-08-21T15:58:42.372Z,3.00
2017-08-21T16:01:10.546Z,3.00
2017-08-21T16:03:38.918Z,2.87
2017-08-21T16:06:07.270Z,3.80
2017-08-21T16:08:35.622Z,3.27
2017-08-21T16:11:03.991Z,3.73
2017-08-21T16:13:32.463Z,3.30
2017-08-21T16:16:00.826Z,3.70
2017-08-21T16:18:29.207Z,3.30
2017-08-21T16:20:59.215Z,3.93
2017-08-21T16:23:27.900Z,3.73
2017-08-21T16:25:56.259Z,3.90
2017-08-21T16:28:24.679Z,3.40
2017-08-21T16:30:53.025Z,3.27
2017-08-21T16:33:21.390Z,3.13
2017-08-21T16:35:49.973Z,2.83
2017-08-21T16:38:18.589Z,3.30
2017-08-21T16:40:46.862Z,3.23
2017-08-21T16:43:15.218Z,3.20
2017-08-21T16:45:43.583Z,2.90
2017-08-21T16:48:11.947Z,3.20
2017-08-21T16:50:40.469Z,3.47
2017-08-21T16:53:08.849Z,3.90
2017-08-21T16:55:37.277Z,2.80
2017-08-21T16:58:06.518Z,3.63
2017-08-21T17:00:34.945Z,3.03
2017-08-21T17:03:03.289Z,2.73
2017-08-21T17:05:31.718Z,2.80
2017-08-21T17:08:00.080Z,3.40
2017-08-21T17:10:28.460Z,3.60
2017-08-21T17:12:57.080Z,3.40
2017-08-21T17:15:25.522Z,3.20
2017-08-21T17:17:53.869Z,3.37
2017-08-21T17:20:21.538Z,3.73
2017-08-21T17:22:50.518Z,2.80
2017-08-21T17:25:18.921Z,2.93
2017-08-21T17:27:47.336Z,3.10
2017-08-21T17:30:15.691Z,3.10
2017-08-21T17:32:44.046Z,2.80
2017-08-21T17:35:12.410Z,3.07
2017-08-21T17:37:41.495Z,2.93
2017-08-21T17:40:09.865Z,2.83
2017-08-21T17:42:38.236Z,3.27
2017-08-21T17:45:06.601Z,3.10
2017-08-21T17:47:34.969Z,3.07
2017-08-21T17:50:03.356Z,3.60
2017-08-21T17:52:31.911Z,3.30
2017-08-21T17:55:00.273Z,3.20
2017-08-21T17:57:28.647Z,2.97
2017-08-21T17:59:57.141Z,3.20
2017-08-21T18:02:25.599Z,2.83
2017-08-21T18:04:53.998Z,2.60
2017-08-21T18:07:22.387Z,3.10
2017-08-21T18:09:50.767Z,3.10
2017-08-21T18:12:18.796Z,3.33
2017-08-21T18:14:47.155Z,3.13
2017-08-21T18:17:15.517Z,3.00
2017-08-21T18:19:43.991Z,2.80
2017-08-21T18:22:12.342Z,2.90
2017-08-21T18:24:40.711Z,3.50
2017-08-21T18:27:09.889Z,3.10
2017-08-21T18:29:38.277Z,3.43
2017-08-21T18:32:06.630Z,3.90
2017-08-21T18:34:35.074Z,3.60
2017-08-21T18:37:03.567Z,3.57
2017-08-21T18:39:32.027Z,3.63
2017-08-21T18:42:01.172Z,4.03
2017-08-21T18:44:29.552Z,3.80
2017-08-21T18:46:57.921Z,4.30
2017-08-21T18:49:26.358Z,4.67
2017-08-21T18:51:54.773Z,3.90
2017-08-21T18:54:23.274Z,3.57
2017-08-21T18:56:51.637Z,3.70
2017-08-21T18:59:20.012Z,3.73
2017-08-21T19:01:48.482Z,3.77
2017-08-21T19:04:16.839Z,4.07
2017-08-21T19:06:45.202Z,4.13
2017-08-21T19:09:13.569Z,4.63
2017-08-21T19:11:41.988Z,6.63
2017-08-21T19:14:10.343Z,9.00
2017-08-21T19:16:38.707Z,9.57
2017-08-21T19:19:07.078Z,8.53
2017-08-21T19:21:35.491Z,8.30
2017-08-21T19:24:03.844Z,8.50
2017-08-21T19:26:32.212Z,7.83
2017-08-21T19:29:00.626Z,6.50
2017-08-21T19:31:29.196Z,5.53
2017-08-21T19:33:57.560Z,5.00
2017-08-21T19:36:25.920Z,4.90
2017-08-21T19:38:54.280Z,5.00
2017-08-21T19:41:22.635Z,4.70
2017-08-21T19:43:51.079Z,4.73
2017-08-21T19:46:19.458Z,5.90
2017-08-21T19:48:47.806Z,5.50
2017-08-21T19:51:17.134Z,5.03
2017-08-21T19:53:45.687Z,4.97
2017-08-21T19:56:14.180Z,4.93
2017-08-21T19:58:42.572Z,4.57
2017-08-21T20:01:10.928Z,6.00
2017-08-21T20:03:39.282Z,5.50
2017-08-21T20:06:07.664Z,4.90
2017-08-21T20:08:36.807Z,6.10
2017-08-21T20:11:05.166Z,5.50
2017-08-21T20:13:33.694Z,5.10
2017-08-21T20:16:02.042Z,6.20
2017-08-21T20:18:30.420Z,5.20
2017-08-21T20:20:58.988Z,4.93
2017-08-21T20:23:27.352Z,5.37
2017-08-21T20:25:55.727Z,4.93
2017-08-21T20:28:24.097Z,5.10
2017-08-21T20:30:52.482Z,4.37
2017-08-21T20:33:20.856Z,4.83
2017-08-21T20:35:49.337Z,6.50
2017-08-21T20:38:18.348Z,6.07
2017-08-21T20:40:46.727Z,5.40
2017-08-21T20:43:15.374Z,5.93
2017-08-21T20:45:43.768Z,5.50
2017-08-21T20:48:12.140Z,5.23
2017-08-21T20:50:40.577Z,5.10
2017-08-21T20:53:08.952Z,5.20
2017-08-21T20:55:37.306Z,5.10
2017-08-21T20:58:05.932Z,6.10
2017-08-21T21:00:34.312Z,5.70
2017-08-21T21:03:02.975Z,5.73
2017-08-21T21:05:31.605Z,5.90
2017-08-21T21:08:00.055Z,5.37
2017-08-21T21:10:28.420Z,6.10
2017-08-21T21:12:56.767Z,5.30
2017-08-21T21:15:25.134Z,5.60
2017-08-21T21:17:53.512Z,5.80
2017-08-21T21:20:21.866Z,6.00
2017-08-21T21:23:25.603Z,6.43
2017-08-21T21:25:53.964Z,5.63
2017-08-21T21:28:22.340Z,5.37
2017-08-21T21:30:50.862Z,6.90
2017-08-21T21:33:19.237Z,6.10
2017-08-21T21:35:47.611Z,6.07
2017-08-21T21:38:15.966Z,5.93
2017-08-21T21:40:44.318Z,6.30
2017-08-21T21:43:12.692Z,6.60
2017-08-21T21:45:41.045Z,6.77
2017-08-21T21:48:09.413Z,5.90
2017-08-21T21:50:37.872Z,5.70
2017-08-21T21:53:06.243Z,5.80
2017-08-21T21:55:34.587Z,7.77
2017-08-21T21:58:02.957Z,6.57
2017-08-21T22:00:31.371Z,6.63
2017-08-21T22:02:59.850Z,6.47
2017-08-21T22:05:28.328Z,5.90
2017-08-21T22:07:56.804Z,6.23
2017-08-21T22:10:25.364Z,7.00
2017-08-21T22:12:53.701Z,6.20
2017-08-21T22:15:22.064Z,6.10
2017-08-21T22:17:50.455Z,5.80
2017-08-21T22:20:18.815Z,5.37
2017-08-21T22:22:47.266Z,6.70
2017-08-21T22:25:15.617Z,5.70
2017-08-21T22:27:44.014Z,6.10
2017-08-21T22:30:12.597Z,7.57
2017-08-21T22:32:41.115Z,7.00
2017-08-21T22:35:09.486Z,6.23
2017-08-21T22:37:38.136Z,6.07
2017-08-21T22:40:06.496Z,6.10
2017-08-21T22:42:34.993Z,6.40
2017-08-21T22:45:03.370Z,6.43
2017-08-21T22:47:31.741Z,6.00
2017-08-21T22:50:00.075Z,6.33
2017-08-21T22:52:28.436Z,6.30
2017-08-21T22:54:56.872Z,6.83
2017-08-21T22:57:25.450Z,7.47
2017-08-21T22:59:53.824Z,7.00
2017-08-21T23:02:22.178Z,6.63
2017-08-21T23:04:50.540Z,6.20
2017-08-21T23:07:19.876Z,7.17
2017-08-21T23:09:48.306Z,7.13
2017-08-21T23:12:16.668Z,8.27
2017-08-21T23:14:45.233Z,7.50
2017-08-21T23:17:13.576Z,7.23
2017-08-21T23:19:41.930Z,8.00
2017-08-21T23:22:10.436Z,7.13
2017-08-21T23:24:39.569Z,7.73
2017-08-21T23:27:08.111Z,8.17
2017-08-21T23:29:36.463Z,8.30
2017-08-21T23:32:04.923Z,7.60
2017-08-21T23:34:33.484Z,8.20
2017-08-21T23:37:01.846Z,8.00
2017-08-21T23:39:30.468Z,7.17
2017-08-21T23:41:58.976Z,8.00
2017-08-21T23:44:27.405Z,9.47
2017-08-21T23:46:55.762Z,7.80
2017-08-21T23:49:24.413Z,7.70
2017-08-21T23:51:52.754Z,8.97
2017-08-21T23:54:22.078Z,9.30
2017-08-21T23:56:50.460Z,9.30
2017-08-21T23:59:18.818Z,9.53
